sensor_id;sensor_type;location;lat;lon;timestamp;P1;durP1;ratioP1;P2;durP2;ratioP2
37047;SDS011;23227;48.780;9.210;2023-05-23T00:01:46;43.85;;;20.20;;
37047;SDS011;23227;48.780;9.210;2023-05-23T00:04:49;40.10;;;19.77;;
37047;SDS011;23227;48.780;9.210;2023-05-23T00:07:52;36.65;;;20.65;;
37047;SDS011;23227;48.780;9.210;2023-05-23T00:13:58;45.93;;;22.17;;
37047;SDS011;23227;48.780;9.210;2023-05-23T00:17:04;45.77;;;22.73;;
37047;SDS011;23227;48.780;9.210;2023-05-23T00:20:08;51.83;;;24.73;;
37047;SDS011;23227;48.780;9.210;2023-05-23T00:23:12;48.60;;;23.83;;
37047;SDS011;23227;48.780;9.210;2023-05-23T00:26:19;54.33;;;26.50;;
37047;SDS011;23227;48.780;9.210;2023-05-23T00:29:22;50.25;;;24.48;;
37047;SDS011;23227;48.780;9.210;2023-05-23T00:32:26;52.92;;;25.63;;
37047;SDS011;23227;48.780;9.210;2023-05-23T00:35:29;49.43;;;25.23;;
37047;SDS011;23227;48.780;9.210;2023-05-23T00:38:32;54.78;;;26.02;;
37047;SDS011;23227;48.780;9.210;2023-05-23T00:41:34;64.80;;;26.70;;
37047;SDS011;23227;48.780;9.210;2023-05-23T00:47:42;63.57;;;27.60;;
37047;SDS011;23227;48.780;9.210;2023-05-23T00:50:45;58.00;;;27.33;;
37047;SDS011;23227;48.780;9.210;2023-05-23T00:53:47;57.10;;;28.88;;
37047;SDS011;23227;48.780;9.210;2023-05-23T00:56:50;56.78;;;28.95;;
37047;SDS011;23227;48.780;9.210;2023-05-23T00:59:53;57.33;;;26.67;;
37047;SDS011;23227;48.780;9.210;2023-05-23T01:02:57;63.22;;;28.25;;
37047;SDS011;23227;48.780;9.210;2023-05-23T01:06:01;60.40;;;29.23;;
37047;SDS011;23227;48.780;9.210;2023-05-23T01:09:04;58.58;;;24.73;;
37047;SDS011;23227;48.780;9.210;2023-05-23T01:12:11;76.45;;;28.65;;
37047;SDS011;23227;48.780;9.210;2023-05-23T01:15:19;73.47;;;29.30;;
37047;SDS011;23227;48.780;9.210;2023-05-23T01:18:25;68.13;;;29.87;;
37047;SDS011;23227;48.780;9.210;2023-05-23T01:21:31;70.13;;;31.50;;
37047;SDS011;23227;48.780;9.210;2023-05-23T01:24:35;59.97;;;28.88;;
37047;SDS011;23227;48.780;9.210;2023-05-23T01:27:44;61.93;;;29.40;;
37047;SDS011;23227;48.780;9.210;2023-05-23T01:30:49;59.47;;;28.33;;
37047;SDS011;23227;48.780;9.210;2023-05-23T01:33:53;77.20;;;32.17;;
37047;SDS011;23227;48.780;9.210;2023-05-23T01:36:56;69.68;;;29.70;;
37047;SDS011;23227;48.780;9.210;2023-05-23T01:39:59;68.45;;;32.38;;
37047;SDS011;23227;48.780;9.210;2023-05-23T01:43:03;73.57;;;32.35;;
37047;SDS011;23227;48.780;9.210;2023-05-23T01:46:06;79.07;;;35.03;;
37047;SDS011;23227;48.780;9.210;2023-05-23T01:49:10;70.47;;;31.43;;
37047;SDS011;23227;48.780;9.210;2023-05-23T01:52:13;69.40;;;31.57;;
37047;SDS011;23227;48.780;9.210;2023-05-23T01:55:17;67.70;;;31.95;;
37047;SDS011;23227;48.780;9.210;2023-05-23T01:58:24;69.97;;;32.83;;
37047;SDS011;23227;48.780;9.210;2023-05-23T02:01:27;73.80;;;33.03;;
37047;SDS011;23227;48.780;9.210;2023-05-23T02:04:30;69.85;;;32.70;;
37047;SDS011;23227;48.780;9.210;2023-05-23T02:07:32;65.45;;;31.48;;
37047;SDS011;23227;48.780;9.210;2023-05-23T02:10:35;73.80;;;34.40;;
37047;SDS011;23227;48.780;9.210;2023-05-23T02:13:39;75.63;;;35.60;;
37047;SDS011;23227;48.780;9.210;2023-05-23T02:16:42;70.67;;;33.03;;
37047;SDS011;23227;48.780;9.210;2023-05-23T02:19:46;73.07;;;34.67;;
37047;SDS011;23227;48.780;9.210;2023-05-23T02:22:48;77.68;;;33.50;;
37047;SDS011;23227;48.780;9.210;2023-05-23T02:25:51;75.43;;;35.60;;
37047;SDS011;23227;48.780;9.210;2023-05-23T02:28:55;85.85;;;36.92;;
37047;SDS011;23227;48.780;9.210;2023-05-23T02:31:58;83.87;;;36.43;;
37047;SDS011;23227;48.780;9.210;2023-05-23T02:35:00;78.90;;;36.03;;
37047;SDS011;23227;48.780;9.210;2023-05-23T02:38:03;78.85;;;38.53;;
37047;SDS011;23227;48.780;9.210;2023-05-23T02:41:06;75.18;;;38.10;;
37047;SDS011;23227;48.780;9.210;2023-05-23T02:44:10;76.75;;;37.13;;
37047;SDS011;23227;48.780;9.210;2023-05-23T02:47:13;77.43;;;38.50;;
37047;SDS011;23227;48.780;9.210;2023-05-23T02:50:15;77.53;;;37.33;;
37047;SDS011;23227;48.780;9.210;2023-05-23T02:53:18;79.57;;;36.50;;
37047;SDS011;23227;48.780;9.210;2023-05-23T02:56:21;78.28;;;37.42;;
37047;SDS011;23227;48.780;9.210;2023-05-23T02:59:25;74.95;;;38.10;;
37047;SDS011;23227;48.780;9.210;2023-05-23T03:02:27;78.03;;;37.63;;
37047;SDS011;23227;48.780;9.210;2023-05-23T03:05:30;85.55;;;39.90;;
37047;SDS011;23227;48.780;9.210;2023-05-23T03:08:33;70.13;;;34.90;;
37047;SDS011;23227;48.780;9.210;2023-05-23T03:11:35;75.05;;;37.30;;
37047;SDS011;23227;48.780;9.210;2023-05-23T03:14:39;71.13;;;36.60;;
37047;SDS011;23227;48.780;9.210;2023-05-23T03:17:42;71.23;;;35.93;;
37047;SDS011;23227;48.780;9.210;2023-05-23T03:20:45;73.05;;;36.97;;
37047;SDS011;23227;48.780;9.210;2023-05-23T03:23:48;76.05;;;36.88;;
37047;SDS011;23227;48.780;9.210;2023-05-23T03:26:51;71.68;;;35.88;;
37047;SDS011;23227;48.780;9.210;2023-05-23T03:29:55;72.72;;;35.08;;
37047;SDS011;23227;48.780;9.210;2023-05-23T03:32:58;67.03;;;35.37;;
37047;SDS011;23227;48.780;9.210;2023-05-23T03:36:02;68.00;;;34.07;;
37047;SDS011;23227;48.780;9.210;2023-05-23T03:42:08;64.60;;;32.77;;
37047;SDS011;23227;48.780;9.210;2023-05-23T03:45:12;69.00;;;34.38;;
37047;SDS011;23227;48.780;9.210;2023-05-23T03:48:15;68.83;;;33.57;;
37047;SDS011;23227;48.780;9.210;2023-05-23T03:51:18;64.63;;;33.60;;
37047;SDS011;23227;48.780;9.210;2023-05-23T03:54:21;64.35;;;34.20;;
37047;SDS011;23227;48.780;9.210;2023-05-23T03:57:24;62.45;;;32.42;;
37047;SDS011;23227;48.780;9.210;2023-05-23T04:00:28;65.32;;;33.65;;
37047;SDS011;23227;48.780;9.210;2023-05-23T04:03:31;61.70;;;32.13;;
37047;SDS011;23227;48.780;9.210;2023-05-23T04:06:34;75.90;;;33.55;;
37047;SDS011;23227;48.780;9.210;2023-05-23T04:09:37;68.53;;;32.70;;
37047;SDS011;23227;48.780;9.210;2023-05-23T04:12:40;65.70;;;32.60;;
37047;SDS011;23227;48.780;9.210;2023-05-23T04:15:44;68.85;;;34.08;;
37047;SDS011;23227;48.780;9.210;2023-05-23T04:18:48;64.70;;;32.07;;
37047;SDS011;23227;48.780;9.210;2023-05-23T04:21:52;56.63;;;30.50;;
37047;SDS011;23227;48.780;9.210;2023-05-23T04:24:55;60.70;;;32.38;;
37047;SDS011;23227;48.780;9.210;2023-05-23T04:27:58;61.30;;;31.05;;
37047;SDS011;23227;48.780;9.210;2023-05-23T04:31:02;58.50;;;32.22;;
37047;SDS011;23227;48.780;9.210;2023-05-23T04:34:06;57.37;;;30.97;;
37047;SDS011;23227;48.780;9.210;2023-05-23T04:37:10;55.13;;;30.43;;
37047;SDS011;23227;48.780;9.210;2023-05-23T04:40:13;55.70;;;29.75;;
37047;SDS011;23227;48.780;9.210;2023-05-23T04:43:17;57.87;;;31.20;;
37047;SDS011;23227;48.780;9.210;2023-05-23T04:46:21;53.40;;;28.05;;
37047;SDS011;23227;48.780;9.210;2023-05-23T04:49:27;54.67;;;29.67;;
37047;SDS011;23227;48.780;9.210;2023-05-23T04:52:29;54.05;;;29.13;;
37047;SDS011;23227;48.780;9.210;2023-05-23T04:55:34;50.83;;;28.37;;
37047;SDS011;23227;48.780;9.210;2023-05-23T04:58:37;52.45;;;29.55;;
37047;SDS011;23227;48.780;9.210;2023-05-23T05:01:43;57.17;;;30.23;;
37047;SDS011;23227;48.780;9.210;2023-05-23T05:04:46;57.03;;;31.27;;
37047;SDS011;23227;48.780;9.210;2023-05-23T05:07:49;54.17;;;29.88;;
37047;SDS011;23227;48.780;9.210;2023-05-23T05:10:53;52.10;;;27.55;;
37047;SDS011;23227;48.780;9.210;2023-05-23T05:13:56;53.00;;;29.17;;
37047;SDS011;23227;48.780;9.210;2023-05-23T05:17:00;56.92;;;29.67;;
37047;SDS011;23227;48.780;9.210;2023-05-23T05:20:04;50.53;;;29.13;;
37047;SDS011;23227;48.780;9.210;2023-05-23T05:23:08;59.33;;;29.80;;
37047;SDS011;23227;48.780;9.210;2023-05-23T05:26:15;52.30;;;28.03;;
37047;SDS011;23227;48.780;9.210;2023-05-23T05:29:17;48.57;;;26.97;;
37047;SDS011;23227;48.780;9.210;2023-05-23T05:32:21;49.90;;;28.92;;
37047;SDS011;23227;48.780;9.210;2023-05-23T05:35:24;47.47;;;28.67;;
37047;SDS011;23227;48.780;9.210;2023-05-23T05:38:26;49.42;;;28.95;;
37047;SDS011;23227;48.780;9.210;2023-05-23T05:41:29;48.03;;;26.70;;
37047;SDS011;23227;48.780;9.210;2023-05-23T05:44:32;46.28;;;27.60;;
37047;SDS011;23227;48.780;9.210;2023-05-23T05:47:36;47.80;;;28.00;;
37047;SDS011;23227;48.780;9.210;2023-05-23T05:50:39;48.40;;;28.97;;
37047;SDS011;23227;48.780;9.210;2023-05-23T05:53:45;52.27;;;28.27;;
37047;SDS011;23227;48.780;9.210;2023-05-23T05:56:49;48.87;;;28.57;;
37047;SDS011;23227;48.780;9.210;2023-05-23T05:59:52;47.00;;;28.33;;
37047;SDS011;23227;48.780;9.210;2023-05-23T06:02:56;50.83;;;27.45;;
37047;SDS011;23227;48.780;9.210;2023-05-23T06:05:59;47.27;;;27.17;;
37047;SDS011;23227;48.780;9.210;2023-05-23T06:09:01;50.17;;;27.23;;
37047;SDS011;23227;48.780;9.210;2023-05-23T06:12:05;45.37;;;28.57;;
37047;SDS011;23227;48.780;9.210;2023-05-23T06:15:08;42.60;;;26.73;;
37047;SDS011;23227;48.780;9.210;2023-05-23T06:18:12;50.23;;;27.83;;
37047;SDS011;23227;48.780;9.210;2023-05-23T06:21:16;46.13;;;27.50;;
37047;SDS011;23227;48.780;9.210;2023-05-23T06:24:18;44.30;;;27.67;;
37047;SDS011;23227;48.780;9.210;2023-05-23T06:27:21;47.95;;;27.80;;
37047;SDS011;23227;48.780;9.210;2023-05-23T06:30:24;45.22;;;27.35;;
37047;SDS011;23227;48.780;9.210;2023-05-23T06:33:28;41.97;;;26.17;;
37047;SDS011;23227;48.780;9.210;2023-05-23T06:36:31;46.47;;;29.10;;
37047;SDS011;23227;48.780;9.210;2023-05-23T06:39:34;51.70;;;29.48;;
37047;SDS011;23227;48.780;9.210;2023-05-23T06:42:36;53.97;;;28.52;;
37047;SDS011;23227;48.780;9.210;2023-05-23T06:45:39;51.38;;;27.83;;
37047;SDS011;23227;48.780;9.210;2023-05-23T06:48:43;42.50;;;25.58;;
37047;SDS011;23227;48.780;9.210;2023-05-23T06:51:46;43.97;;;27.87;;
37047;SDS011;23227;48.780;9.210;2023-05-23T06:54:49;47.22;;;28.60;;
37047;SDS011;23227;48.780;9.210;2023-05-23T06:57:52;43.60;;;24.63;;
37047;SDS011;23227;48.780;9.210;2023-05-23T07:00:55;45.25;;;28.42;;
37047;SDS011;23227;48.780;9.210;2023-05-23T07:03:59;48.95;;;28.80;;
37047;SDS011;23227;48.780;9.210;2023-05-23T07:07:01;48.33;;;27.27;;
37047;SDS011;23227;48.780;9.210;2023-05-23T07:10:05;48.35;;;27.77;;
37047;SDS011;23227;48.780;9.210;2023-05-23T07:13:08;45.53;;;28.33;;
37047;SDS011;23227;48.780;9.210;2023-05-23T07:16:10;54.13;;;28.20;;
37047;SDS011;23227;48.780;9.210;2023-05-23T07:19:15;44.20;;;26.80;;
37047;SDS011;23227;48.780;9.210;2023-05-23T07:22:17;47.33;;;21.20;;
37047;SDS011;23227;48.780;9.210;2023-05-23T07:25:20;42.58;;;26.60;;
37047;SDS011;23227;48.780;9.210;2023-05-23T07:28:23;40.85;;;24.08;;
37047;SDS011;23227;48.780;9.210;2023-05-23T07:31:26;36.83;;;23.25;;
37047;SDS011;23227;48.780;9.210;2023-05-23T07:34:30;38.28;;;24.38;;
37047;SDS011;23227;48.780;9.210;2023-05-23T07:37:33;36.43;;;20.77;;
37047;SDS011;23227;48.780;9.210;2023-05-23T07:40:35;30.27;;;19.75;;
37047;SDS011;23227;48.780;9.210;2023-05-23T07:46:41;34.40;;;22.23;;
37047;SDS011;23227;48.780;9.210;2023-05-23T07:49:45;31.20;;;19.17;;
37047;SDS011;23227;48.780;9.210;2023-05-23T07:52:48;37.83;;;23.50;;
37047;SDS011;23227;48.780;9.210;2023-05-23T07:55:52;40.17;;;24.73;;
37047;SDS011;23227;48.780;9.210;2023-05-23T07:58:54;33.20;;;22.25;;
37047;SDS011;23227;48.780;9.210;2023-05-23T08:01:57;38.10;;;23.48;;
37047;SDS011;23227;48.780;9.210;2023-05-23T08:05:01;36.92;;;21.80;;
37047;SDS011;23227;48.780;9.210;2023-05-23T08:08:04;31.10;;;20.17;;
37047;SDS011;23227;48.780;9.210;2023-05-23T08:11:06;34.90;;;17.98;;
37047;SDS011;23227;48.780;9.210;2023-05-23T08:14:09;25.38;;;17.05;;
37047;SDS011;23227;48.780;9.210;2023-05-23T08:17:12;28.30;;;16.52;;
37047;SDS011;23227;48.780;9.210;2023-05-23T08:20:16;29.13;;;17.80;;
37047;SDS011;23227;48.780;9.210;2023-05-23T08:23:18;28.87;;;13.20;;
37047;SDS011;23227;48.780;9.210;2023-05-23T08:26:21;28.42;;;16.52;;
37047;SDS011;23227;48.780;9.210;2023-05-23T08:29:24;28.80;;;15.85;;
37047;SDS011;23227;48.780;9.210;2023-05-23T08:32:28;23.90;;;16.80;;
37047;SDS011;23227;48.780;9.210;2023-05-23T08:35:32;24.17;;;16.55;;
37047;SDS011;23227;48.780;9.210;2023-05-23T08:38:35;25.70;;;16.17;;
37047;SDS011;23227;48.780;9.210;2023-05-23T08:41:38;23.25;;;14.18;;
37047;SDS011;23227;48.780;9.210;2023-05-23T08:44:40;20.63;;;13.10;;
37047;SDS011;23227;48.780;9.210;2023-05-23T08:47:44;22.42;;;14.98;;
37047;SDS011;23227;48.780;9.210;2023-05-23T08:50:49;25.57;;;14.60;;
37047;SDS011;23227;48.780;9.210;2023-05-23T08:53:52;20.83;;;14.00;;
37047;SDS011;23227;48.780;9.210;2023-05-23T08:56:56;24.50;;;15.50;;
37047;SDS011;23227;48.780;9.210;2023-05-23T09:00:00;22.77;;;12.83;;
37047;SDS011;23227;48.780;9.210;2023-05-23T09:03:10;18.83;;;13.60;;
37047;SDS011;23227;48.780;9.210;2023-05-23T09:06:15;22.97;;;13.43;;
37047;SDS011;23227;48.780;9.210;2023-05-23T09:09:19;23.43;;;15.17;;
37047;SDS011;23227;48.780;9.210;2023-05-23T09:12:22;24.80;;;14.35;;
37047;SDS011;23227;48.780;9.210;2023-05-23T09:15:24;20.58;;;13.82;;
37047;SDS011;23227;48.780;9.210;2023-05-23T09:18:31;22.27;;;14.77;;
37047;SDS011;23227;48.780;9.210;2023-05-23T09:21:36;21.40;;;14.87;;
37047;SDS011;23227;48.780;9.210;2023-05-23T09:24:39;22.30;;;14.30;;
37047;SDS011;23227;48.780;9.210;2023-05-23T09:27:42;21.63;;;14.00;;
37047;SDS011;23227;48.780;9.210;2023-05-23T09:30:51;19.30;;;11.73;;
37047;SDS011;23227;48.780;9.210;2023-05-23T09:33:59;20.87;;;12.67;;
37047;SDS011;23227;48.780;9.210;2023-05-23T09:37:03;21.92;;;11.60;;
37047;SDS011;23227;48.780;9.210;2023-05-23T09:40:07;20.00;;;11.77;;
37047;SDS011;23227;48.780;9.210;2023-05-23T09:43:11;17.77;;;11.97;;
37047;SDS011;23227;48.780;9.210;2023-05-23T09:46:14;18.05;;;12.15;;
37047;SDS011;23227;48.780;9.210;2023-05-23T09:49:16;21.58;;;12.95;;
37047;SDS011;23227;48.780;9.210;2023-05-23T09:52:21;18.37;;;12.40;;
37047;SDS011;23227;48.780;9.210;2023-05-23T09:55:24;18.40;;;11.97;;
37047;SDS011;23227;48.780;9.210;2023-05-23T09:58:27;14.93;;;11.05;;
37047;SDS011;23227;48.780;9.210;2023-05-23T10:01:30;16.57;;;10.10;;
37047;SDS011;23227;48.780;9.210;2023-05-23T10:04:33;19.85;;;10.38;;
37047;SDS011;23227;48.780;9.210;2023-05-23T10:07:37;17.00;;;10.43;;
37047;SDS011;23227;48.780;9.210;2023-05-23T10:14:32;14.53;;;9.87;;
37047;SDS011;23227;48.780;9.210;2023-05-23T10:17:39;17.87;;;10.33;;
37047;SDS011;23227;48.780;9.210;2023-05-23T10:20:48;18.73;;;9.63;;
37047;SDS011;23227;48.780;9.210;2023-05-23T10:23:53;15.80;;;10.23;;
37047;SDS011;23227;48.780;9.210;2023-05-23T10:26:56;16.97;;;10.00;;
37047;SDS011;23227;48.780;9.210;2023-05-23T10:29:59;19.08;;;9.55;;
37047;SDS011;23227;48.780;9.210;2023-05-23T10:33:02;14.77;;;9.88;;
37047;SDS011;23227;48.780;9.210;2023-05-23T10:36:07;13.17;;;9.07;;
37047;SDS011;23227;48.780;9.210;2023-05-23T10:39:15;12.37;;;9.27;;
37047;SDS011;23227;48.780;9.210;2023-05-23T10:42:32;14.97;;;8.47;;
37047;SDS011;23227;48.780;9.210;2023-05-23T10:45:41;11.40;;;6.50;;
37047;SDS011;23227;48.780;9.210;2023-05-23T10:48:45;13.17;;;8.17;;
37047;SDS011;23227;48.780;9.210;2023-05-23T10:51:48;10.27;;;6.90;;
37047;SDS011;23227;48.780;9.210;2023-05-23T10:54:53;12.17;;;7.67;;
37047;SDS011;23227;48.780;9.210;2023-05-23T11:01:17;9.73;;;6.53;;
37047;SDS011;23227;48.780;9.210;2023-05-23T11:04:24;9.10;;;6.97;;
37047;SDS011;23227;48.780;9.210;2023-05-23T11:07:28;15.97;;;7.00;;
37047;SDS011;23227;48.780;9.210;2023-05-23T11:10:32;9.77;;;7.90;;
37047;SDS011;23227;48.780;9.210;2023-05-23T11:13:53;9.30;;;6.70;;
37047;SDS011;23227;48.780;9.210;2023-05-23T11:16:57;11.37;;;7.23;;
37047;SDS011;23227;48.780;9.210;2023-05-23T11:20:02;11.03;;;6.07;;
37047;SDS011;23227;48.780;9.210;2023-05-23T11:23:07;10.37;;;6.23;;
37047;SDS011;23227;48.780;9.210;2023-05-23T11:29:34;8.50;;;5.87;;
37047;SDS011;23227;48.780;9.210;2023-05-23T11:32:38;9.23;;;5.97;;
37047;SDS011;23227;48.780;9.210;2023-05-23T11:35:40;11.18;;;5.68;;
37047;SDS011;23227;48.780;9.210;2023-05-23T11:38:44;8.47;;;5.27;;
37047;SDS011;23227;48.780;9.210;2023-05-23T11:41:53;9.05;;;5.70;;
37047;SDS011;23227;48.780;9.210;2023-05-23T11:48:06;13.53;;;7.23;;
37047;SDS011;23227;48.780;9.210;2023-05-23T11:51:09;10.63;;;7.93;;
37047;SDS011;23227;48.780;9.210;2023-05-23T11:54:11;10.25;;;7.32;;
37047;SDS011;23227;48.780;9.210;2023-05-23T11:57:15;10.63;;;7.45;;
37047;SDS011;23227;48.780;9.210;2023-05-23T12:00:18;13.00;;;6.93;;
37047;SDS011;23227;48.780;9.210;2023-05-23T12:03:21;10.17;;;7.33;;
37047;SDS011;23227;48.780;9.210;2023-05-23T12:06:24;8.00;;;6.25;;
37047;SDS011;23227;48.780;9.210;2023-05-23T12:09:27;9.55;;;6.78;;
37047;SDS011;23227;48.780;9.210;2023-05-23T12:12:31;8.70;;;6.63;;
37047;SDS011;23227;48.780;9.210;2023-05-23T12:15:34;8.47;;;5.53;;
37047;SDS011;23227;48.780;9.210;2023-05-23T12:21:42;8.57;;;6.07;;
37047;SDS011;23227;48.780;9.210;2023-05-23T12:24:46;10.37;;;6.43;;
37047;SDS011;23227;48.780;9.210;2023-05-23T12:27:50;7.60;;;5.00;;
37047;SDS011;23227;48.780;9.210;2023-05-23T12:30:53;7.07;;;5.57;;
37047;SDS011;23227;48.780;9.210;2023-05-23T12:33:56;7.35;;;5.40;;
37047;SDS011;23227;48.780;9.210;2023-05-23T12:37:00;8.43;;;6.20;;
37047;SDS011;23227;48.780;9.210;2023-05-23T12:40:14;8.13;;;5.20;;
37047;SDS011;23227;48.780;9.210;2023-05-23T12:43:19;7.70;;;5.07;;
37047;SDS011;23227;48.780;9.210;2023-05-23T12:46:22;6.97;;;5.27;;
37047;SDS011;23227;48.780;9.210;2023-05-23T12:49:25;8.13;;;5.00;;
37047;SDS011;23227;48.780;9.210;2023-05-23T12:52:28;6.20;;;4.68;;
37047;SDS011;23227;48.780;9.210;2023-05-23T12:55:31;5.97;;;4.95;;
37047;SDS011;23227;48.780;9.210;2023-05-23T12:58:35;5.78;;;4.57;;
37047;SDS011;23227;48.780;9.210;2023-05-23T13:01:37;6.23;;;4.63;;
37047;SDS011;23227;48.780;9.210;2023-05-23T13:04:40;6.00;;;4.35;;
37047;SDS011;23227;48.780;9.210;2023-05-23T13:07:43;6.50;;;4.05;;
37047;SDS011;23227;48.780;9.210;2023-05-23T13:10:45;8.35;;;4.90;;
37047;SDS011;23227;48.780;9.210;2023-05-23T13:13:51;5.03;;;3.70;;
37047;SDS011;23227;48.780;9.210;2023-05-23T13:16:53;11.17;;;4.60;;
37047;SDS011;23227;48.780;9.210;2023-05-23T13:22:59;8.37;;;3.70;;
37047;SDS011;23227;48.780;9.210;2023-05-23T13:26:02;44.88;;;7.47;;
37047;SDS011;23227;48.780;9.210;2023-05-23T13:29:06;447.77;;;33.43;;
37047;SDS011;23227;48.780;9.210;2023-05-23T13:32:09;5.20;;;4.00;;
37047;SDS011;23227;48.780;9.210;2023-05-23T13:35:11;5.57;;;3.55;;
37047;SDS011;23227;48.780;9.210;2023-05-23T13:38:14;76.22;;;8.43;;
37047;SDS011;23227;48.780;9.210;2023-05-23T13:41:18;5.30;;;3.87;;
37047;SDS011;23227;48.780;9.210;2023-05-23T13:44:22;5.30;;;3.33;;
37047;SDS011;23227;48.780;9.210;2023-05-23T13:47:25;4.13;;;3.30;;
37047;SDS011;23227;48.780;9.210;2023-05-23T13:50:28;5.40;;;3.30;;
37047;SDS011;23227;48.780;9.210;2023-05-23T13:53:31;4.05;;;3.30;;
37047;SDS011;23227;48.780;9.210;2023-05-23T13:56:33;5.95;;;3.53;;
37047;SDS011;23227;48.780;9.210;2023-05-23T13:59:38;4.97;;;3.17;;
37047;SDS011;23227;48.780;9.210;2023-05-23T14:02:41;15.10;;;5.20;;
37047;SDS011;23227;48.780;9.210;2023-05-23T14:05:43;8.60;;;3.88;;
37047;SDS011;23227;48.780;9.210;2023-05-23T14:08:46;6.10;;;3.05;;
37047;SDS011;23227;48.780;9.210;2023-05-23T14:11:49;11.40;;;3.83;;
37047;SDS011;23227;48.780;9.210;2023-05-23T14:17:56;4.73;;;2.70;;
37047;SDS011;23227;48.780;9.210;2023-05-23T14:20:58;4.85;;;2.63;;
37047;SDS011;23227;48.780;9.210;2023-05-23T14:24:01;12.65;;;3.38;;
37047;SDS011;23227;48.780;9.210;2023-05-23T14:27:04;7.15;;;3.20;;
37047;SDS011;23227;48.780;9.210;2023-05-23T14:30:12;3.60;;;3.03;;
37047;SDS011;23227;48.780;9.210;2023-05-23T14:33:15;5.10;;;3.10;;
37047;SDS011;23227;48.780;9.210;2023-05-23T14:36:18;4.10;;;2.78;;
37047;SDS011;23227;48.780;9.210;2023-05-23T14:42:25;3.78;;;2.90;;
37047;SDS011;23227;48.780;9.210;2023-05-23T14:48:32;9.10;;;2.88;;
37047;SDS011;23227;48.780;9.210;2023-05-23T14:54:50;5.22;;;3.13;;
37047;SDS011;23227;48.780;9.210;2023-05-23T15:00:58;4.32;;;3.13;;
37047;SDS011;23227;48.780;9.210;2023-05-23T15:04:00;6.73;;;3.23;;
37047;SDS011;23227;48.780;9.210;2023-05-23T15:07:05;3.60;;;2.80;;
37047;SDS011;23227;48.780;9.210;2023-05-23T15:13:11;4.15;;;3.05;;
37047;SDS011;23227;48.780;9.210;2023-05-23T15:16:15;3.67;;;2.85;;
37047;SDS011;23227;48.780;9.210;2023-05-23T15:19:18;5.60;;;3.00;;
37047;SDS011;23227;48.780;9.210;2023-05-23T15:22:21;5.03;;;2.70;;
37047;SDS011;23227;48.780;9.210;2023-05-23T15:25:30;4.87;;;2.53;;
37047;SDS011;23227;48.780;9.210;2023-05-23T15:28:49;3.30;;;2.83;;
37047;SDS011;23227;48.780;9.210;2023-05-23T15:31:53;5.03;;;2.67;;
37047;SDS011;23227;48.780;9.210;2023-05-23T15:34:56;3.33;;;2.37;;
37047;SDS011;23227;48.780;9.210;2023-05-23T15:37:59;3.40;;;2.20;;
37047;SDS011;23227;48.780;9.210;2023-05-23T15:41:01;2.80;;;2.05;;
37047;SDS011;23227;48.780;9.210;2023-05-23T15:44:05;5.87;;;2.37;;
37047;SDS011;23227;48.780;9.210;2023-05-23T15:47:09;4.35;;;2.88;;
37047;SDS011;23227;48.780;9.210;2023-05-23T15:50:11;6.77;;;3.17;;
37047;SDS011;23227;48.780;9.210;2023-05-23T15:53:14;4.20;;;3.00;;
37047;SDS011;23227;48.780;9.210;2023-05-23T15:56:17;8.05;;;2.83;;
37047;SDS011;23227;48.780;9.210;2023-05-23T15:59:20;5.53;;;2.70;;
37047;SDS011;23227;48.780;9.210;2023-05-23T16:02:24;2.78;;;2.28;;
37047;SDS011;23227;48.780;9.210;2023-05-23T16:05:26;5.25;;;2.80;;
37047;SDS011;23227;48.780;9.210;2023-05-23T16:11:32;8.88;;;3.20;;
37047;SDS011;23227;48.780;9.210;2023-05-23T16:17:38;4.05;;;3.03;;
37047;SDS011;23227;48.780;9.210;2023-05-23T16:20:41;6.07;;;3.45;;
37047;SDS011;23227;48.780;9.210;2023-05-23T16:23:44;5.93;;;2.80;;
37047;SDS011;23227;48.780;9.210;2023-05-23T16:26:47;5.90;;;3.35;;
37047;SDS011;23227;48.780;9.210;2023-05-23T16:29:49;5.35;;;3.20;;
37047;SDS011;23227;48.780;9.210;2023-05-23T16:35:56;4.68;;;3.17;;
37047;SDS011;23227;48.780;9.210;2023-05-23T16:42:01;5.68;;;3.58;;
37047;SDS011;23227;48.780;9.210;2023-05-23T16:45:04;5.32;;;3.50;;
37047;SDS011;23227;48.780;9.210;2023-05-23T16:48:09;7.82;;;3.70;;
37047;SDS011;23227;48.780;9.210;2023-05-23T16:51:12;9.32;;;4.03;;
37047;SDS011;23227;48.780;9.210;2023-05-23T16:54:14;8.20;;;4.47;;
37047;SDS011;23227;48.780;9.210;2023-05-23T17:00:20;11.25;;;4.82;;
37047;SDS011;23227;48.780;9.210;2023-05-23T17:06:29;10.85;;;4.82;;
37047;SDS011;23227;48.780;9.210;2023-05-23T17:09:32;9.63;;;4.95;;
37047;SDS011;23227;48.780;9.210;2023-05-23T17:12:35;6.90;;;5.07;;
37047;SDS011;23227;48.780;9.210;2023-05-23T17:15:38;7.13;;;4.43;;
37047;SDS011;23227;48.780;9.210;2023-05-23T17:18:42;6.77;;;4.97;;
37047;SDS011;23227;48.780;9.210;2023-05-23T17:21:45;8.43;;;5.50;;
37047;SDS011;23227;48.780;9.210;2023-05-23T17:24:48;8.60;;;4.72;;
37047;SDS011;23227;48.780;9.210;2023-05-23T17:27:51;6.55;;;4.28;;
37047;SDS011;23227;48.780;9.210;2023-05-23T17:30:53;4.97;;;4.00;;
37047;SDS011;23227;48.780;9.210;2023-05-23T17:37:00;13.00;;;4.90;;
37047;SDS011;23227;48.780;9.210;2023-05-23T17:40:03;8.27;;;3.38;;
37047;SDS011;23227;48.780;9.210;2023-05-23T17:43:07;7.37;;;3.67;;
37047;SDS011;23227;48.780;9.210;2023-05-23T17:46:10;3.97;;;2.85;;
37047;SDS011;23227;48.780;9.210;2023-05-23T17:49:14;8.82;;;3.22;;
37047;SDS011;23227;48.780;9.210;2023-05-23T17:52:16;4.00;;;3.00;;
37047;SDS011;23227;48.780;9.210;2023-05-23T17:55:19;3.92;;;2.35;;
37047;SDS011;23227;48.780;9.210;2023-05-23T17:58:22;3.83;;;3.00;;
37047;SDS011;23227;48.780;9.210;2023-05-23T18:01:25;4.97;;;3.05;;
37047;SDS011;23227;48.780;9.210;2023-05-23T18:04:29;4.00;;;2.47;;
37047;SDS011;23227;48.780;9.210;2023-05-23T18:07:32;5.27;;;2.13;;
37047;SDS011;23227;48.780;9.210;2023-05-23T18:10:34;5.18;;;2.45;;
37047;SDS011;23227;48.780;9.210;2023-05-23T18:13:37;5.00;;;2.67;;
37047;SDS011;23227;48.780;9.210;2023-05-23T18:16:40;3.53;;;2.45;;
37047;SDS011;23227;48.780;9.210;2023-05-23T18:19:44;3.65;;;3.13;;
37047;SDS011;23227;48.780;9.210;2023-05-23T18:22:49;4.10;;;2.67;;
37047;SDS011;23227;48.780;9.210;2023-05-23T18:25:52;5.53;;;2.37;;
37047;SDS011;23227;48.780;9.210;2023-05-23T18:28:55;3.97;;;2.17;;
37047;SDS011;23227;48.780;9.210;2023-05-23T18:31:58;3.35;;;2.05;;
37047;SDS011;23227;48.780;9.210;2023-05-23T18:35:02;2.65;;;2.10;;
37047;SDS011;23227;48.780;9.210;2023-05-23T18:38:04;2.83;;;2.10;;
37047;SDS011;23227;48.780;9.210;2023-05-23T18:41:07;2.67;;;2.17;;
37047;SDS011;23227;48.780;9.210;2023-05-23T18:44:14;2.70;;;1.90;;
37047;SDS011;23227;48.780;9.210;2023-05-23T18:47:21;7.40;;;2.10;;
37047;SDS011;23227;48.780;9.210;2023-05-23T18:50:25;6.05;;;2.55;;
37047;SDS011;23227;48.780;9.210;2023-05-23T18:53:28;3.20;;;1.70;;
37047;SDS011;23227;48.780;9.210;2023-05-23T18:56:31;3.85;;;1.73;;
37047;SDS011;23227;48.780;9.210;2023-05-23T18:59:34;4.95;;;2.40;;
37047;SDS011;23227;48.780;9.210;2023-05-23T19:05:45;4.57;;;2.07;;
37047;SDS011;23227;48.780;9.210;2023-05-23T19:08:48;3.23;;;2.00;;
37047;SDS011;23227;48.780;9.210;2023-05-23T19:11:50;2.60;;;1.77;;
37047;SDS011;23227;48.780;9.210;2023-05-23T19:14:53;2.65;;;1.65;;
37047;SDS011;23227;48.780;9.210;2023-05-23T19:21:00;3.90;;;1.73;;
37047;SDS011;23227;48.780;9.210;2023-05-23T19:24:03;7.17;;;2.23;;